createdAt,value
2022-12-17T00:01:43.402Z,1.20
2022-12-17T00:04:28.851Z,1.20
2022-12-17T00:07:15.381Z,1.20
2022-12-17T00:10:00.786Z,1.20
2022-12-17T00:12:57.631Z,1.20
2022-12-17T00:15:45.827Z,1.20
2022-12-17T00:18:32.749Z,1.10
2022-12-17T00:21:19.319Z,1.10
2022-12-17T00:24:06.225Z,1.10
2022-12-17T00:26:52.165Z,1.20
2022-12-17T00:29:38.220Z,1.20
2022-12-17T00:32:24.697Z,1.10
2022-12-17T00:35:11.455Z,1.10
2022-12-17T00:37:56.937Z,1.20
2022-12-17T00:40:42.554Z,1.20
2022-12-17T00:43:29.990Z,1.20
2022-12-17T00:46:15.942Z,1.20
2022-12-17T00:49:13.323Z,1.20
2022-12-17T00:52:00.464Z,1.20
2022-12-17T00:54:45.921Z,1.20
2022-12-17T00:57:31.346Z,1.20
2022-12-17T01:00:16.843Z,1.20
2022-12-17T01:03:02.290Z,1.20
2022-12-17T01:05:48.025Z,1.20
2022-12-17T01:08:34.801Z,1.20
2022-12-17T01:11:21.015Z,1.20
2022-12-17T01:14:07.117Z,1.20
2022-12-17T01:16:53.170Z,1.20
2022-12-17T01:19:42.039Z,1.20
2022-12-17T01:22:27.763Z,1.20
2022-12-17T01:25:15.004Z,1.20
2022-12-17T01:28:01.591Z,1.20
2022-12-17T01:30:47.621Z,1.20
2022-12-17T01:33:33.220Z,1.20
2022-12-17T01:36:15.524Z,1.20
2022-12-17T01:39:01.619Z,1.20
2022-12-17T01:41:48.807Z,1.20
2022-12-17T01:45:04.991Z,1.20
2022-12-17T01:47:53.556Z,1.20
2022-12-17T01:50:43.925Z,1.20
2022-12-17T01:53:30.433Z,1.20
2022-12-17T01:56:16.846Z,1.20
2022-12-17T01:59:04.010Z,1.20
2022-12-17T02:01:49.491Z,1.20
2022-12-17T02:04:35.183Z,1.20
2022-12-17T02:08:02.586Z,1.20
2022-12-17T02:10:58.140Z,1.20
2022-12-17T02:13:49.283Z,1.20
2022-12-17T02:16:40.044Z,1.20
2022-12-17T02:19:39.935Z,1.10
2022-12-17T02:22:32.973Z,1.10
2022-12-17T02:25:25.737Z,1.10
2022-12-17T02:28:12.445Z,1.10
2022-12-17T02:30:58.334Z,1.10
2022-12-17T02:33:44.830Z,1.00
2022-12-17T02:36:30.291Z,1.00
2022-12-17T02:39:15.797Z,1.00
2022-12-17T02:42:06.067Z,1.00
2022-12-17T02:44:54.067Z,1.00
2022-12-17T02:47:41.533Z,1.00
2022-12-17T02:50:28.951Z,1.00
2022-12-17T02:53:18.021Z,1.00
2022-12-17T02:56:03.608Z,0.90
2022-12-17T02:58:49.197Z,0.90
2022-12-17T03:01:36.527Z,0.90
2022-12-17T03:04:22.349Z,0.90
2022-12-17T03:07:08.251Z,0.90
2022-12-17T03:09:54.009Z,0.90
2022-12-17T03:12:39.281Z,0.90
2022-12-17T03:15:25.484Z,0.90
2022-12-17T03:18:13.015Z,0.90
2022-12-17T03:20:58.383Z,0.90
2022-12-17T03:23:43.957Z,0.80
2022-12-17T03:26:29.330Z,0.80
2022-12-17T03:29:14.748Z,0.80
2022-12-17T03:32:00.240Z,0.80
2022-12-17T03:34:47.264Z,0.80
2022-12-17T03:37:32.738Z,0.80
2022-12-17T03:40:23.777Z,0.80
2022-12-17T03:43:09.218Z,0.80
2022-12-17T03:45:55.807Z,0.80
2022-12-17T03:48:41.478Z,0.80
2022-12-17T03:51:28.429Z,0.80
2022-12-17T03:54:14.047Z,0.70
2022-12-17T03:56:59.608Z,0.70
2022-12-17T03:59:45.240Z,0.70
2022-12-17T04:02:30.884Z,0.70
2022-12-17T04:05:20.096Z,0.70
2022-12-17T04:08:07.645Z,0.70
2022-12-17T04:10:53.171Z,0.70
2022-12-17T04:13:41.254Z,0.60
2022-12-17T04:16:27.369Z,0.60
2022-12-17T04:19:13.405Z,0.60
2022-12-17T04:21:58.895Z,0.60
2022-12-17T04:24:46.028Z,0.70
2022-12-17T04:27:31.868Z,0.70
2022-12-17T04:30:17.240Z,0.70
2022-12-17T04:33:02.954Z,0.60
2022-12-17T04:35:48.336Z,0.60
2022-12-17T04:38:34.051Z,0.70
2022-12-17T04:41:21.273Z,0.60
2022-12-17T04:44:06.970Z,0.70
2022-12-17T04:46:53.139Z,0.60
2022-12-17T04:49:38.605Z,0.60
2022-12-17T04:52:24.390Z,0.60
2022-12-17T04:55:09.863Z,0.60
2022-12-17T04:57:56.929Z,0.60
2022-12-17T05:00:51.028Z,0.70
2022-12-17T05:03:37.094Z,0.70
2022-12-17T05:06:23.354Z,0.70
2022-12-17T05:09:08.862Z,0.70
2022-12-17T05:11:54.280Z,0.70
2022-12-17T05:14:37.654Z,0.70
2022-12-17T05:17:23.445Z,0.70
2022-12-17T05:20:09.273Z,0.70
2022-12-17T05:22:54.601Z,0.70
2022-12-17T05:25:40.026Z,0.70
2022-12-17T05:28:25.330Z,0.70
2022-12-17T05:31:13.671Z,0.70
2022-12-17T05:33:59.461Z,0.70
2022-12-17T05:36:45.086Z,0.70
2022-12-17T05:39:30.765Z,0.70
2022-12-17T05:42:16.286Z,0.70
2022-12-17T05:45:01.633Z,0.70
2022-12-17T05:47:48.818Z,0.70
2022-12-17T05:50:34.737Z,0.70
2022-12-17T05:53:21.604Z,0.70
2022-12-17T05:56:11.058Z,0.70
2022-12-17T05:58:57.250Z,0.70
2022-12-17T06:01:42.781Z,0.70
2022-12-17T06:04:30.216Z,0.70
2022-12-17T06:07:15.931Z,0.70
2022-12-17T06:10:01.544Z,0.70
2022-12-17T06:12:47.026Z,0.70
2022-12-17T06:15:32.563Z,0.70
2022-12-17T06:18:18.144Z,0.60
2022-12-17T06:21:04.942Z,0.70
2022-12-17T06:23:50.411Z,0.70
2022-12-17T06:26:50.010Z,0.60
2022-12-17T06:29:35.513Z,0.60
2022-12-17T06:32:20.996Z,0.70
2022-12-17T06:35:06.406Z,0.60
2022-12-17T06:37:53.564Z,0.60
2022-12-17T06:40:39.170Z,0.60
2022-12-17T06:43:39.198Z,0.60
2022-12-17T06:46:24.760Z,0.60
2022-12-17T06:49:10.311Z,0.50
2022-12-17T06:51:55.781Z,0.50
2022-12-17T06:54:42.819Z,0.50
2022-12-17T06:57:28.394Z,0.50
2022-12-17T07:00:13.889Z,0.40
2022-12-17T07:02:59.926Z,0.40
2022-12-17T07:05:45.661Z,0.40
2022-12-17T07:08:31.131Z,0.40
2022-12-17T07:11:19.689Z,0.50
2022-12-17T07:14:05.302Z,0.50
2022-12-17T07:16:51.061Z,0.50
2022-12-17T07:19:37.653Z,0.50
2022-12-17T07:22:23.162Z,0.40
2022-12-17T07:25:08.797Z,0.40
2022-12-17T07:27:55.778Z,0.40
2022-12-17T07:30:56.214Z,0.40
2022-12-17T07:33:41.832Z,0.40
2022-12-17T07:36:27.394Z,0.40
2022-12-17T07:39:12.939Z,0.40
2022-12-17T07:41:58.367Z,0.40
2022-12-17T07:44:45.217Z,0.40
2022-12-17T07:47:30.977Z,0.40
2022-12-17T07:50:16.495Z,0.40
2022-12-17T07:53:02.178Z,0.30
2022-12-17T07:55:47.628Z,0.30
2022-12-17T07:58:33.297Z,0.30
2022-12-17T08:01:20.797Z,0.30
2022-12-17T08:04:06.801Z,0.30
2022-12-17T08:06:56.643Z,0.30
2022-12-17T08:09:45.420Z,0.30
2022-12-17T08:12:31.394Z,0.30
2022-12-17T08:15:28.584Z,0.30
2022-12-17T08:18:26.367Z,0.30
2022-12-17T08:21:12.241Z,0.30
2022-12-17T08:23:57.911Z,0.30
2022-12-17T08:26:47.789Z,0.30
2022-12-17T08:29:33.916Z,0.40
2022-12-17T08:32:19.385Z,0.40
2022-12-17T08:35:06.022Z,0.30
2022-12-17T08:37:59.927Z,0.30
2022-12-17T08:40:45.464Z,0.30
2022-12-17T08:43:31.695Z,0.30
2022-12-17T08:46:17.246Z,0.20
2022-12-17T08:49:03.005Z,0.20
2022-12-17T08:51:49.808Z,0.20
2022-12-17T08:54:35.367Z,0.20
2022-12-17T08:57:31.386Z,0.20
2022-12-17T09:00:17.936Z,0.20
2022-12-17T09:03:03.841Z,0.20
2022-12-17T09:05:49.654Z,0.30
2022-12-17T09:08:36.486Z,0.30
2022-12-17T09:11:22.094Z,0.30
2022-12-17T09:14:07.413Z,0.30
2022-12-17T09:16:53.223Z,0.30
2022-12-17T09:19:39.228Z,0.30
2022-12-17T09:22:25.022Z,0.30
2022-12-17T09:25:11.933Z,0.40
2022-12-17T09:27:57.380Z,0.40
2022-12-17T09:30:48.148Z,0.40
2022-12-17T09:33:35.017Z,0.50
2022-12-17T09:36:22.576Z,0.50
2022-12-17T09:39:08.043Z,0.40
2022-12-17T09:42:04.421Z,0.50
2022-12-17T09:45:02.221Z,0.50
2022-12-17T09:48:00.651Z,0.60
2022-12-17T09:50:46.753Z,0.60
2022-12-17T09:53:40.009Z,0.60
2022-12-17T09:56:28.591Z,0.60
2022-12-17T09:59:15.500Z,0.60
2022-12-17T10:02:01.417Z,0.70
2022-12-17T10:04:52.561Z,0.70
2022-12-17T10:07:37.901Z,0.70
2022-12-17T10:10:34.758Z,0.70
2022-12-17T10:13:20.691Z,0.70
2022-12-17T10:16:07.731Z,0.70
2022-12-17T10:18:53.366Z,0.70
2022-12-17T10:21:42.545Z,0.70
2022-12-17T10:24:29.586Z,0.70
2022-12-17T10:27:15.675Z,0.80
2022-12-17T10:30:14.587Z,0.80
2022-12-17T10:33:01.222Z,0.80
2022-12-17T10:35:55.353Z,0.80
2022-12-17T10:38:43.243Z,0.80
2022-12-17T10:41:41.770Z,0.80
2022-12-17T10:44:44.475Z,0.80
2022-12-17T10:47:31.525Z,0.80
2022-12-17T10:50:20.232Z,0.80
2022-12-17T10:53:07.008Z,0.80
2022-12-17T10:55:53.892Z,0.80
2022-12-17T10:58:41.969Z,0.80
2022-12-17T11:01:31.554Z,0.90
2022-12-17T11:04:17.481Z,0.80
2022-12-17T11:07:07.679Z,0.90
2022-12-17T11:10:03.703Z,0.90
2022-12-17T11:12:57.910Z,1.00
2022-12-17T11:15:49.215Z,1.00
2022-12-17T11:18:39.270Z,0.90
2022-12-17T11:21:29.313Z,1.00
2022-12-17T11:24:22.434Z,1.00
2022-12-17T11:27:12.408Z,1.00
2022-12-17T11:29:57.788Z,1.10
2022-12-17T11:33:10.462Z,1.00
2022-12-17T11:36:05.467Z,1.00
2022-12-17T11:38:56.975Z,1.00
2022-12-17T11:41:55.022Z,1.10
2022-12-17T11:44:54.065Z,1.00
2022-12-17T11:47:54.912Z,1.00
2022-12-17T11:50:47.610Z,1.10
2022-12-17T11:54:04.912Z,1.20
2022-12-17T11:56:59.818Z,1.10
2022-12-17T11:59:53.442Z,1.10
2022-12-17T12:02:54.010Z,1.10
2022-12-17T12:05:53.423Z,1.10
2022-12-17T12:08:45.663Z,1.10
2022-12-17T12:11:41.530Z,1.10
2022-12-17T12:14:40.754Z,1.20
2022-12-17T12:17:50.770Z,1.10
2022-12-17T12:20:59.673Z,1.10
2022-12-17T12:23:56.959Z,1.10
2022-12-17T12:26:48.461Z,1.00
2022-12-17T12:29:46.948Z,1.00
2022-12-17T12:32:43.524Z,1.00
2022-12-17T12:35:35.106Z,1.10
2022-12-17T12:38:21.417Z,1.10
2022-12-17T12:41:14.482Z,1.00
2022-12-17T12:44:15.456Z,1.00
2022-12-17T12:47:11.320Z,0.90
2022-12-17T12:50:04.214Z,0.90
2022-12-17T12:52:55.866Z,0.90
2022-12-17T12:55:41.207Z,0.80
2022-12-17T12:58:44.115Z,0.80
2022-12-17T13:01:30.673Z,0.90
2022-12-17T13:04:19.716Z,0.90
2022-12-17T13:06:50.743Z,1.00
2022-12-17T13:09:35.426Z,1.00
2022-12-17T13:12:29.979Z,0.90
2022-12-17T13:15:12.142Z,1.00
2022-12-17T13:17:45.175Z,1.00
2022-12-17T13:20:27.364Z,0.80
2022-12-17T13:23:14.803Z,0.90
2022-12-17T13:25:43.328Z,0.90
2022-12-17T13:28:27.848Z,0.90
2022-12-17T13:31:03.268Z,0.90
2022-12-17T13:33:40.583Z,1.00
2022-12-17T13:36:19.201Z,0.90
2022-12-17T13:38:55.626Z,0.80
2022-12-17T13:41:29.535Z,0.80
2022-12-17T13:44:00.606Z,0.80
2022-12-17T13:46:30.374Z,0.80
2022-12-17T13:49:00.324Z,0.80
2022-12-17T13:51:33.114Z,0.80
2022-12-17T13:54:03.454Z,0.80
2022-12-17T13:56:33.679Z,0.80
2022-12-17T13:59:09.060Z,0.80
2022-12-17T14:01:46.787Z,0.80
2022-12-17T14:04:22.823Z,0.80
2022-12-17T14:06:54.021Z,0.80
2022-12-17T14:09:25.419Z,0.70
2022-12-17T14:12:11.588Z,0.70
2022-12-17T14:14:43.916Z,0.70
2022-12-17T14:17:19.634Z,0.60
2022-12-17T14:19:48.794Z,0.60
2022-12-17T14:22:28.801Z,0.60
2022-12-17T14:24:57.298Z,0.60
2022-12-17T14:27:28.900Z,0.60
2022-12-17T14:29:57.693Z,0.60
2022-12-17T14:32:31.580Z,0.60
2022-12-17T14:35:01.312Z,0.60
2022-12-17T14:37:31.581Z,0.60
2022-12-17T14:40:04.161Z,0.60
2022-12-17T14:42:37.118Z,0.50
2022-12-17T14:45:08.504Z,0.50
2022-12-17T14:47:38.285Z,0.60
2022-12-17T14:50:09.926Z,0.60
2022-12-17T14:52:42.239Z,0.60
2022-12-17T14:55:35.214Z,0.60
2022-12-17T14:58:21.353Z,0.60
2022-12-17T15:00:53.719Z,0.60
2022-12-17T15:03:25.990Z,0.60
2022-12-17T15:05:58.013Z,0.60
2022-12-17T15:08:29.088Z,0.60
2022-12-17T15:10:57.860Z,0.50
2022-12-17T15:13:26.339Z,0.50
2022-12-17T15:15:55.016Z,0.40
2022-12-17T15:18:26.140Z,0.30
2022-12-17T15:20:54.881Z,0.30
2022-12-17T15:23:24.701Z,0.40
2022-12-17T15:28:24.289Z,0.40
2022-12-17T15:30:52.580Z,0.40
2022-12-17T15:33:20.747Z,0.40
2022-12-17T15:35:49.270Z,0.40
2022-12-17T15:38:17.610Z,0.40
2022-12-17T15:40:45.818Z,0.40
2022-12-17T15:43:15.972Z,0.30
2022-12-17T15:45:45.478Z,0.30
2022-12-17T15:48:15.591Z,0.30
2022-12-17T15:50:43.838Z,0.20
2022-12-17T15:53:12.088Z,0.20
2022-12-17T15:55:40.588Z,0.20
2022-12-17T15:58:10.644Z,0.20
2022-12-17T16:00:40.095Z,0.10
2022-12-17T16:03:08.533Z,0.10
2022-12-17T16:05:36.877Z,0.10
2022-12-17T16:08:05.349Z,0.20
2022-12-17T16:10:33.590Z,0.20
2022-12-17T16:13:01.758Z,0.20
2022-12-17T16:15:30.383Z,0.00
2022-12-17T16:18:00.000Z,0.10
2022-12-17T16:20:28.324Z,0.10
2022-12-17T16:22:56.505Z,0.10
2022-12-17T16:25:24.748Z,0.00
2022-12-17T16:27:53.018Z,0.00
2022-12-17T16:30:21.212Z,-0.10
2022-12-17T16:32:49.280Z,-0.20
2022-12-17T16:35:18.885Z,-0.10
2022-12-17T16:37:46.968Z,-0.10
2022-12-17T16:40:15.025Z,-0.10
2022-12-17T16:42:43.147Z,-0.10
2022-12-17T16:45:11.860Z,-0.10
2022-12-17T16:47:39.969Z,-0.10
2022-12-17T16:50:08.277Z,-0.20
2022-12-17T16:52:37.668Z,-0.10
2022-12-17T16:55:06.302Z,-0.20
2022-12-17T16:57:34.343Z,-0.20
2022-12-17T17:00:02.454Z,-0.20
2022-12-17T17:02:30.689Z,-0.20
2022-12-17T17:04:58.906Z,-0.30
2022-12-17T17:07:27.005Z,-0.30
2022-12-17T17:09:57.665Z,-0.30
2022-12-17T17:12:26.939Z,-0.30
2022-12-17T17:14:55.101Z,-0.30
2022-12-17T17:17:55.963Z,-0.30
2022-12-17T17:20:12.909Z,-0.30
2022-12-17T17:22:41.140Z,-0.30
2022-12-17T17:25:10.843Z,-0.30
2022-12-17T17:27:38.943Z,-0.30
2022-12-17T17:30:08.249Z,-0.40
2022-12-17T17:32:36.420Z,-0.30
2022-12-17T17:35:05.634Z,-0.30
2022-12-17T17:37:33.763Z,-0.30
2022-12-17T17:40:01.907Z,-0.30
2022-12-17T17:42:31.508Z,-0.30
2022-12-17T17:44:59.617Z,-0.30
2022-12-17T17:47:30.077Z,-0.30
2022-12-17T17:49:58.196Z,-0.30
2022-12-17T17:52:26.299Z,-0.50
2022-12-17T17:54:54.363Z,-0.50
2022-12-17T17:57:22.441Z,-0.50
2022-12-17T17:59:51.934Z,-0.50
2022-12-17T18:02:20.366Z,-0.60
2022-12-17T18:04:48.823Z,-0.60
2022-12-17T18:07:25.191Z,-0.60
2022-12-17T18:09:54.907Z,-0.70
2022-12-17T18:12:41.152Z,-0.60
2022-12-17T18:30:13.706Z,-0.70
2022-12-17T18:32:43.382Z,-0.90
2022-12-17T18:40:09.967Z,-1.00
2022-12-17T18:42:55.739Z,-1.00
2022-12-17T18:45:25.314Z,-1.00
2022-12-17T18:47:53.575Z,-1.10
2022-12-17T18:52:50.342Z,-1.10
2022-12-17T18:55:19.010Z,-1.10
2022-12-17T18:57:47.235Z,-1.10
2022-12-17T19:00:16.188Z,-1.10
2022-12-17T19:02:45.927Z,-1.10
2022-12-17T19:05:14.431Z,-1.10
2022-12-17T19:07:42.580Z,-1.00
2022-12-17T19:10:11.485Z,-1.00
2022-12-17T19:12:39.657Z,-1.00
2022-12-17T19:15:09.135Z,-1.00
2022-12-17T19:17:37.447Z,-1.10
2022-12-17T19:20:08.273Z,-1.20
2022-12-17T19:22:36.463Z,-1.20
2022-12-17T19:25:04.993Z,-1.30
2022-12-17T19:27:33.261Z,-1.40
2022-12-17T19:30:01.509Z,-1.50
2022-12-17T19:32:29.671Z,-1.50
2022-12-17T19:34:57.910Z,-1.50
2022-12-17T19:37:27.668Z,-1.50
2022-12-17T19:39:56.032Z,-1.50
2022-12-17T19:42:33.455Z,-1.40
2022-12-17T19:45:05.509Z,-1.30
2022-12-17T19:47:33.863Z,-1.30
2022-12-17T19:50:02.193Z,-1.40
2022-12-17T19:52:32.059Z,-1.20
2022-12-17T19:55:00.330Z,-1.40
2022-12-17T19:57:28.801Z,-1.40
2022-12-17T19:59:57.085Z,-1.50
2022-12-17T20:02:30.996Z,-1.60
2022-12-17T20:05:00.722Z,-1.70
2022-12-17T20:07:28.817Z,-1.80
2022-12-17T20:09:59.456Z,-1.80
